Time;durP1;ratioP1;P1;durP2;ratioP2;P2;SDS_P1;SDS_P2;PMS_P1;PMS_P2;Temp;Humidity;BMP_temperature;BMP_pressure;BME280_temperature;BME280_humidity;BME280_pressure;Samples;Min_cycle;Max_cycle;Signal;HPM_P1;HPM_P2
2023/10/25 00:00:35;;;;;;;11.30;2.88;;;;;;;;;;5910108;28;20051;-69
2023/10/25 00:03:25;;;;;;;14.57;3.42;;;;;;;;;;5898103;28;20498;-69
2023/10/25 00:06:17;;;;;;;4.07;2.63;;;;;;;;;;5886094;28;20565;-69
2023/10/25 00:09:07;;;;;;;8.00;2.50;;;;;;;;;;5886923;28;20052;-69
2023/10/25 00:11:58;;;;;;;5.47;2.45;;;;;;;;;;5887478;28;20052;-69
2023/10/25 00:14:49;;;;;;;13.25;4.15;;;;;;;;;;5886798;28;20040;-69
2023/10/25 00:17:40;;;;;;;8.30;1.90;;;;;;;;;;5886759;28;20516;-69
2023/10/25 00:20:31;;;;;;;3.70;2.38;;;;;;;;;;5886590;28;20052;-69
2023/10/25 00:23:22;;;;;;;12.88;2.67;;;;;;;;;;5885282;28;20049;-69
2023/10/25 00:26:13;;;;;;;5.50;2.72;;;;;;;;;;5886693;28;20049;-69
2023/10/25 00:29:04;;;;;;;7.60;3.10;;;;;;;;;;5886636;28;20132;-69
2023/10/25 00:31:55;;;;;;;5.90;3.38;;;;;;;;;;5887044;28;20053;-69
2023/10/25 00:34:46;;;;;;;6.57;3.00;;;;;;;;;;5886479;28;20052;-69
2023/10/25 00:37:36;;;;;;;11.73;2.67;;;;;;;;;;5886585;28;20041;-69
2023/10/25 00:40:27;;;;;;;14.85;2.67;;;;;;;;;;5886464;28;20156;-69
2023/10/25 00:43:20;;;;;;;9.27;2.63;;;;;;;;;;5886631;28;20057;-69
2023/10/25 00:46:13;;;;;;;8.05;2.75;;;;;;;;;;5886391;28;20147;-69
2023/10/25 00:49:06;;;;;;;7.45;2.05;;;;;;;;;;5885240;28;20056;-69
2023/10/25 00:51:57;;;;;;;12.63;1.75;;;;;;;;;;5885503;28;20056;-69
2023/10/25 00:54:48;;;;;;;9.50;2.45;;;;;;;;;;5886325;28;20048;-69
2023/10/25 00:57:39;;;;;;;1.27;1.15;;;;;;;;;;5886341;28;20037;-69
2023/10/25 01:00:29;;;;;;;6.68;2.08;;;;;;;;;;5886218;28;20045;-69
2023/10/25 01:03:20;;;;;;;3.88;1.60;;;;;;;;;;5885002;28;20049;-69
2023/10/25 01:06:11;;;;;;;6.85;2.28;;;;;;;;;;5886265;28;20060;-69
2023/10/25 01:09:02;;;;;;;1.40;1.30;;;;;;;;;;5886126;28;20049;-69
2023/10/25 01:11:53;;;;;;;6.90;2.20;;;;;;;;;;5885362;28;20052;-69
2023/10/25 01:14:44;;;;;;;10.32;2.30;;;;;;;;;;5884684;28;20049;-69
2023/10/25 01:17:34;;;;;;;8.88;2.92;;;;;;;;;;5886313;28;20049;-69
2023/10/25 01:20:25;;;;;;;2.75;1.67;;;;;;;;;;5887416;28;20472;-69
2023/10/25 01:23:16;;;;;;;11.93;3.30;;;;;;;;;;5890432;28;20422;-69
2023/10/25 01:26:07;;;;;;;2.72;1.48;;;;;;;;;;5890086;28;20498;-69
2023/10/25 01:28:58;;;;;;;2.75;1.92;;;;;;;;;;5890556;28;20052;-69
2023/10/25 01:31:48;;;;;;;2.30;1.60;;;;;;;;;;5890481;28;20053;-69
2023/10/25 01:34:39;;;;;;;4.32;0.80;;;;;;;;;;5890058;28;20047;-69
2023/10/25 01:37:30;;;;;;;2.00;1.08;;;;;;;;;;5890056;28;20056;-69
2023/10/25 01:40:21;;;;;;;5.63;1.90;;;;;;;;;;5889919;28;20106;-69
2023/10/25 01:43:12;;;;;;;5.28;1.73;;;;;;;;;;5890298;28;20472;-69
2023/10/25 01:46:02;;;;;;;1.77;1.42;;;;;;;;;;5889961;28;20056;-69
2023/10/25 01:48:53;;;;;;;4.72;1.90;;;;;;;;;;5890254;28;20462;-69
2023/10/25 01:51:44;;;;;;;1.90;1.13;;;;;;;;;;5889300;28;20135;-69
2023/10/25 01:54:35;;;;;;;3.22;1.48;;;;;;;;;;5889579;28;20128;-69
2023/10/25 01:57:26;;;;;;;5.72;2.20;;;;;;;;;;5889672;28;20068;-69
2023/10/25 02:00:17;;;;;;;5.78;2.75;;;;;;;;;;5889559;28;20394;-69
2023/10/25 02:03:08;;;;;;;0.77;0.77;;;;;;;;;;5889750;28;20057;-69
2023/10/25 02:05:58;;;;;;;10.07;2.08;;;;;;;;;;5889794;28;20057;-69
2023/10/25 02:08:49;;;;;;;7.28;1.90;;;;;;;;;;5889273;28;20068;-69
2023/10/25 02:11:40;;;;;;;2.63;1.40;;;;;;;;;;5889356;28;20494;-69
2023/10/25 02:14:36;;;;;;;6.45;1.85;;;;;;;;;;5889285;28;20139;-69
2023/10/25 02:17:27;;;;;;;12.35;2.20;;;;;;;;;;5889447;28;20395;-69
2023/10/25 02:20:17;;;;;;;2.72;1.45;;;;;;;;;;5889064;28;20052;-69
2023/10/25 02:23:08;;;;;;;1.65;1.35;;;;;;;;;;5889271;28;20048;-69
2023/10/25 02:25:59;;;;;;;3.78;1.23;;;;;;;;;;5889692;28;20403;-69
2023/10/25 02:28:50;;;;;;;6.80;2.88;;;;;;;;;;5888932;28;20053;-69
2023/10/25 02:31:40;;;;;;;8.10;3.03;;;;;;;;;;5888641;28;20198;-69
2023/10/25 02:34:31;;;;;;;1.65;1.15;;;;;;;;;;5889045;28;20129;-69
2023/10/25 02:37:22;;;;;;;5.18;1.75;;;;;;;;;;5888975;28;20049;-69
2023/10/25 02:40:13;;;;;;;2.85;1.48;;;;;;;;;;5888671;28;20383;-69
2023/10/25 02:43:04;;;;;;;3.67;1.95;;;;;;;;;;5888879;28;20053;-69
2023/10/25 02:46:03;;;;;;;1.50;1.00;;;;;;;;;;5889081;28;20068;-69
2023/10/25 02:48:54;;;;;;;1.63;1.27;;;;;;;;;;5888484;28;20037;-69
2023/10/25 02:51:45;;;;;;;2.63;1.63;;;;;;;;;;5888495;28;20144;-69
2023/10/25 02:54:36;;;;;;;4.70;1.48;;;;;;;;;;5888204;28;20055;-69
2023/10/25 02:57:27;;;;;;;7.93;1.65;;;;;;;;;;5888387;28;20045;-70
2023/10/25 03:00:18;;;;;;;3.70;1.58;;;;;;;;;;5888172;28;20056;-69
2023/10/25 03:03:09;;;;;;;0.73;0.73;;;;;;;;;;5888234;28;20063;-69
2023/10/25 03:06:00;;;;;;;6.75;1.33;;;;;;;;;;5887835;28;20136;-69
2023/10/25 03:08:52;;;;;;;2.78;1.38;;;;;;;;;;5886188;28;20479;-69
2023/10/25 03:11:43;;;;;;;2.72;1.23;;;;;;;;;;5886056;28;20064;-69
2023/10/25 03:14:33;;;;;;;1.35;1.05;;;;;;;;;;5885976;28;20046;-69
2023/10/25 03:17:26;;;;;;;14.02;1.73;;;;;;;;;;5884464;28;20100;-69
2023/10/25 03:20:17;;;;;;;3.38;1.65;;;;;;;;;;5885573;28;20155;-69
2023/10/25 03:23:08;;;;;;;19.38;2.30;;;;;;;;;;5886560;28;20049;-69
2023/10/25 03:26:09;;;;;;;2.05;1.33;;;;;;;;;;5888091;28;20446;-69
2023/10/25 03:29:00;;;;;;;3.92;1.92;;;;;;;;;;5887747;28;20049;-69
2023/10/25 03:31:53;;;;;;;10.93;2.92;;;;;;;;;;5888023;28;20410;-69
2023/10/25 03:34:44;;;;;;;4.60;2.17;;;;;;;;;;5887400;28;20057;-69
2023/10/25 03:37:39;;;;;;;3.63;2.50;;;;;;;;;;5887609;28;20044;-69
2023/10/25 03:40:30;;;;;;;4.60;2.45;;;;;;;;;;5887505;28;20135;-69
2023/10/25 03:43:20;;;;;;;4.90;2.55;;;;;;;;;;5886451;28;20411;-69
2023/10/25 03:46:11;;;;;;;4.85;3.05;;;;;;;;;;5887193;28;20057;-69
2023/10/25 03:49:02;;;;;;;2.60;2.22;;;;;;;;;;5887245;28;20053;-69
2023/10/25 03:51:53;;;;;;;9.38;3.15;;;;;;;;;;5887763;28;20595;-69
2023/10/25 03:54:44;;;;;;;4.00;3.00;;;;;;;;;;5887128;28;20045;-69
2023/10/25 03:57:35;;;;;;;14.77;3.80;;;;;;;;;;5887017;28;20055;-69
2023/10/25 04:00:26;;;;;;;4.43;3.25;;;;;;;;;;5887049;28;20051;-69
2023/10/25 04:03:17;;;;;;;6.22;3.28;;;;;;;;;;5886988;28;20053;-69
2023/10/25 04:06:09;;;;;;;8.15;4.55;;;;;;;;;;5886900;28;20413;-69
2023/10/25 04:09:01;;;;;;;8.32;3.97;;;;;;;;;;5887235;28;20055;-69
2023/10/25 04:11:52;;;;;;;6.25;4.28;;;;;;;;;;5886903;28;20128;-69
2023/10/25 04:14:45;;;;;;;6.15;4.15;;;;;;;;;;5886780;28;20049;-69
2023/10/25 04:17:36;;;;;;;5.60;3.85;;;;;;;;;;5886787;28;20044;-69
2023/10/25 04:20:32;;;;;;;4.93;2.95;;;;;;;;;;5886522;28;20502;-70
2023/10/25 04:23:28;;;;;;;8.77;3.53;;;;;;;;;;5886800;28;20123;-70
2023/10/25 04:26:19;;;;;;;6.80;3.25;;;;;;;;;;5886472;28;20056;-69
2023/10/25 04:29:10;;;;;;;5.72;3.42;;;;;;;;;;5886528;28;20044;-69
2023/10/25 04:32:00;;;;;;;4.63;2.38;;;;;;;;;;5887046;28;20149;-69
2023/10/25 04:34:51;;;;;;;3.40;2.47;;;;;;;;;;5886640;28;20183;-69
2023/10/25 04:37:42;;;;;;;5.70;2.60;;;;;;;;;;5886614;28;20055;-69
2023/10/25 04:40:33;;;;;;;2.42;1.88;;;;;;;;;;5885144;28;20041;-69
2023/10/25 04:43:24;;;;;;;2.65;2.03;;;;;;;;;;5886357;28;20483;-70
2023/10/25 04:46:15;;;;;;;6.47;2.92;;;;;;;;;;5886469;28;20051;-69
2023/10/25 04:49:06;;;;;;;8.35;2.65;;;;;;;;;;5886271;28;20044;-70
2023/10/25 04:51:57;;;;;;;2.33;2.13;;;;;;;;;;5886662;28;20052;-70
2023/10/25 04:54:47;;;;;;;17.30;2.42;;;;;;;;;;5890418;28;20052;-70
2023/10/25 04:57:41;;;;;;;2.67;2.22;;;;;;;;;;5891726;28;20080;-70
2023/10/25 05:00:32;;;;;;;2.30;2.10;;;;;;;;;;5890909;28;20045;-70
2023/10/25 05:03:23;;;;;;;2.55;1.80;;;;;;;;;;5890901;28;20048;-70
2023/10/25 05:06:15;;;;;;;4.57;3.03;;;;;;;;;;5890707;28;20048;-70
2023/10/25 05:09:06;;;;;;;3.75;1.95;;;;;;;;;;5890810;28;20129;-70
2023/10/25 05:12:06;;;;;;;3.25;2.58;;;;;;;;;;5891156;28;20118;-70
2023/10/25 05:14:58;;;;;;;4.65;2.75;;;;;;;;;;5891586;28;20585;-70
2023/10/25 05:17:49;;;;;;;3.78;2.17;;;;;;;;;;5890820;28;20060;-70
2023/10/25 05:20:41;;;;;;;3.72;2.03;;;;;;;;;;5890284;28;20056;-70
2023/10/25 05:23:34;;;;;;;4.03;3.00;;;;;;;;;;5890434;28;20037;-71
2023/10/25 05:26:25;;;;;;;4.55;2.95;;;;;;;;;;5890546;28;20044;-71
2023/10/25 05:29:16;;;;;;;6.53;3.20;;;;;;;;;;5890001;28;20045;-70
2023/10/25 05:32:13;;;;;;;9.60;2.70;;;;;;;;;;5890290;28;20059;-71
2023/10/25 05:35:06;;;;;;;3.33;2.45;;;;;;;;;;5890063;28;20733;-71
2023/10/25 05:37:57;;;;;;;4.07;2.30;;;;;;;;;;5890665;28;20118;-70
2023/10/25 05:40:51;;;;;;;5.07;3.00;;;;;;;;;;5890142;28;20049;-70
2023/10/25 05:43:46;;;;;;;8.35;3.78;;;;;;;;;;5890102;28;20053;-72
2023/10/25 05:46:36;;;;;;;5.40;3.90;;;;;;;;;;5890125;28;20048;-70
2023/10/25 05:49:28;;;;;;;6.28;3.28;;;;;;;;;;5889792;28;20409;-71
2023/10/25 05:52:20;;;;;;;7.85;5.05;;;;;;;;;;5889871;28;20053;-71
2023/10/25 05:55:15;;;;;;;9.90;4.95;;;;;;;;;;5888500;28;20497;-71
2023/10/25 05:58:07;;;;;;;6.43;4.85;;;;;;;;;;5889520;28;20059;-70
2023/10/25 06:01:03;;;;;;;13.52;6.28;;;;;;;;;;5890089;28;20110;-70
2023/10/25 06:03:56;;;;;;;6.68;4.38;;;;;;;;;;5889304;28;20052;-70
2023/10/25 06:06:48;;;;;;;7.10;5.22;;;;;;;;;;5889101;28;20045;-71
2023/10/25 06:09:39;;;;;;;7.13;4.63;;;;;;;;;;5888043;28;20418;-69
2023/10/25 06:12:31;;;;;;;7.10;4.60;;;;;;;;;;5889251;28;20052;-70
2023/10/25 06:15:21;;;;;;;6.13;4.55;;;;;;;;;;5887817;28;20049;-70
2023/10/25 06:18:13;;;;;;;6.13;3.60;;;;;;;;;;5889272;28;20049;-69
2023/10/25 06:21:04;;;;;;;9.20;5.07;;;;;;;;;;5889034;28;20041;-69
2023/10/25 06:23:54;;;;;;;6.78;4.25;;;;;;;;;;5889208;28;20055;-68
2023/10/25 06:26:45;;;;;;;5.80;3.60;;;;;;;;;;5888927;28;20045;-69
2023/10/25 06:29:36;;;;;;;7.40;4.68;;;;;;;;;;5888734;28;20463;-69
2023/10/25 06:32:27;;;;;;;8.43;4.45;;;;;;;;;;5888938;28;20045;-68
2023/10/25 06:35:18;;;;;;;5.63;4.65;;;;;;;;;;5888624;28;20136;-69
2023/10/25 06:38:09;;;;;;;6.70;3.53;;;;;;;;;;5888792;28;20052;-69
2023/10/25 06:41:00;;;;;;;5.03;3.83;;;;;;;;;;5888780;28;20053;-68
2023/10/25 06:43:51;;;;;;;6.97;3.80;;;;;;;;;;5888861;28;20497;-69
2023/10/25 06:46:43;;;;;;;3.75;3.38;;;;;;;;;;5887477;28;20053;-69
2023/10/25 06:49:34;;;;;;;4.82;2.88;;;;;;;;;;5888406;28;20510;-68
2023/10/25 06:52:25;;;;;;;5.82;4.00;;;;;;;;;;5888259;28;20049;-68
2023/10/25 06:55:17;;;;;;;3.83;3.53;;;;;;;;;;5888193;28;20060;-69
2023/10/25 06:58:08;;;;;;;2.95;2.40;;;;;;;;;;5888315;28;20182;-69
2023/10/25 07:01:01;;;;;;;7.63;3.10;;;;;;;;;;5888594;28;20045;-69
2023/10/25 07:03:59;;;;;;;13.80;3.90;;;;;;;;;;5887592;28;20060;-68
2023/10/25 07:06:51;;;;;;;2.65;2.05;;;;;;;;;;5888188;28;20426;-68
2023/10/25 07:09:42;;;;;;;2.35;2.13;;;;;;;;;;5886544;28;20067;-69
2023/10/25 07:12:33;;;;;;;5.38;2.17;;;;;;;;;;5888023;28;20482;-69
2023/10/25 07:15:24;;;;;;;2.92;2.53;;;;;;;;;;5887974;28;20056;-68
2023/10/25 07:18:15;;;;;;;4.15;2.70;;;;;;;;;;5887926;28;20415;-69
2023/10/25 07:21:06;;;;;;;3.75;2.00;;;;;;;;;;5887649;28;20041;-69
2023/10/25 07:23:56;;;;;;;2.45;2.13;;;;;;;;;;5888413;28;20049;-69
2023/10/25 07:26:47;;;;;;;2.58;1.60;;;;;;;;;;5887768;28;20049;-68
2023/10/25 07:29:39;;;;;;;3.53;2.25;;;;;;;;;;5887511;28;20047;-69
2023/10/25 07:32:31;;;;;;;4.35;1.77;;;;;;;;;;5887749;28;20127;-69
2023/10/25 07:35:22;;;;;;;2.67;2.22;;;;;;;;;;5887364;28;20041;-68
2023/10/25 07:38:13;;;;;;;4.45;2.03;;;;;;;;;;5886111;28;20049;-68
2023/10/25 07:41:03;;;;;;;1.83;1.55;;;;;;;;;;5887617;28;20049;-69
2023/10/25 07:43:54;;;;;;;1.42;1.33;;;;;;;;;;5887980;28;20281;-69
2023/10/25 07:46:45;;;;;;;1.80;1.70;;;;;;;;;;5887408;28;20052;-69
2023/10/25 07:49:36;;;;;;;2.65;1.83;;;;;;;;;;5887220;28;20056;-69
2023/10/25 07:52:30;;;;;;;5.47;2.72;;;;;;;;;;5887197;28;20557;-69
2023/10/25 07:55:20;;;;;;;2.35;2.05;;;;;;;;;;5887136;28;20053;-69
2023/10/25 07:58:14;;;;;;;2.40;1.92;;;;;;;;;;5887130;28;20426;-69
2023/10/25 08:01:12;;;;;;;3.95;2.53;;;;;;;;;;5887052;28;20049;-69
2023/10/25 08:04:06;;;;;;;3.25;2.42;;;;;;;;;;5886945;28;20045;-69
2023/10/25 08:06:58;;;;;;;2.25;1.70;;;;;;;;;;5887529;28;20081;-69
2023/10/25 08:09:48;;;;;;;5.18;2.58;;;;;;;;;;5886922;28;20045;-69
2023/10/25 08:12:39;;;;;;;2.15;1.90;;;;;;;;;;5886864;28;20052;-69
2023/10/25 08:15:30;;;;;;;7.00;3.67;;;;;;;;;;5886893;28;20049;-69
2023/10/25 08:18:21;;;;;;;4.10;3.00;;;;;;;;;;5887018;28;20053;-69
2023/10/25 08:21:13;;;;;;;8.20;3.38;;;;;;;;;;5886686;28;20111;-70
2023/10/25 08:24:05;;;;;;;5.00;3.17;;;;;;;;;;5886739;28;20055;-69
2023/10/25 08:26:58;;;;;;;5.30;3.60;;;;;;;;;;5886957;28;20060;-69
2023/10/25 08:29:49;;;;;;;10.82;3.60;;;;;;;;;;5886144;28;20395;-69
2023/10/25 08:32:40;;;;;;;2.65;2.35;;;;;;;;;;5886873;28;20518;-69
2023/10/25 08:35:31;;;;;;;3.70;2.20;;;;;;;;;;5886436;28;20048;-69
2023/10/25 08:38:22;;;;;;;6.95;4.60;;;;;;;;;;5886626;28;20482;-69
2023/10/25 08:41:15;;;;;;;4.18;2.95;;;;;;;;;;5886626;28;20418;-69
2023/10/25 08:44:08;;;;;;;8.18;3.75;;;;;;;;;;5886309;28;20080;-69
2023/10/25 08:46:59;;;;;;;5.07;2.95;;;;;;;;;;5887182;28;20482;-69
2023/10/25 08:49:49;;;;;;;4.20;2.65;;;;;;;;;;5886412;28;20525;-69
2023/10/25 08:52:44;;;;;;;3.90;3.03;;;;;;;;;;5886178;28;20064;-69
2023/10/25 08:55:35;;;;;;;4.13;3.15;;;;;;;;;;5884809;28;20359;-69
2023/10/25 08:58:26;;;;;;;4.95;3.58;;;;;;;;;;5884993;28;20045;-69
2023/10/25 09:01:18;;;;;;;3.20;2.80;;;;;;;;;;5886230;28;20045;-69
2023/10/25 09:04:09;;;;;;;2.85;2.63;;;;;;;;;;5886312;28;20055;-69
2023/10/25 09:07:00;;;;;;;4.88;3.08;;;;;;;;;;5886478;28;20063;-69
2023/10/25 09:09:51;;;;;;;3.78;2.58;;;;;;;;;;5886157;28;20049;-69
2023/10/25 09:12:42;;;;;;;4.75;3.35;;;;;;;;;;5886026;28;20053;-69
2023/10/25 09:15:33;;;;;;;2.92;2.63;;;;;;;;;;5886025;28;20063;-69
2023/10/25 09:18:23;;;;;;;2.67;2.22;;;;;;;;;;5886051;28;20049;-69
2023/10/25 09:21:14;;;;;;;3.20;2.28;;;;;;;;;;5885767;28;20546;-70
2023/10/25 09:24:09;;;;;;;3.63;2.58;;;;;;;;;;5885895;28;20057;-69
2023/10/25 09:27:06;;;;;;;2.78;2.10;;;;;;;;;;5886402;28;20053;-69
2023/10/25 09:30:29;;;;;;;4.43;2.88;;;;;;;;;;5886091;28;20041;-69
2023/10/25 09:33:20;;;;;;;5.22;3.28;;;;;;;;;;5872662;28;20069;-69
2023/10/25 09:36:11;;;;;;;5.43;3.25;;;;;;;;;;5885857;28;20072;-69
2023/10/25 09:39:02;;;;;;;6.13;2.20;;;;;;;;;;5885807;28;20417;-69
2023/10/25 09:41:55;;;;;;;4.18;2.38;;;;;;;;;;5890178;28;20150;-69
2023/10/25 09:44:50;;;;;;;3.60;2.03;;;;;;;;;;5888521;28;20053;-69
2023/10/25 09:47:47;;;;;;;4.07;2.65;;;;;;;;;;5889925;28;20049;-69
2023/10/25 09:50:50;;;;;;;4.53;2.75;;;;;;;;;;5889993;28;20055;-69
2023/10/25 09:53:49;;;;;;;3.42;2.10;;;;;;;;;;5888580;28;20067;-69
2023/10/25 09:56:42;;;;;;;5.20;2.97;;;;;;;;;;5889723;28;20383;-69
2023/10/25 09:59:34;;;;;;;4.25;2.85;;;;;;;;;;5889931;28;20131;-70
2023/10/25 10:02:43;;;;;;;6.32;2.90;;;;;;;;;;5889660;28;20072;-70
2023/10/25 10:05:55;;;;;;;5.53;3.00;;;;;;;;;;5889325;28;20048;-69
2023/10/25 10:09:15;;;;;;;3.63;2.67;;;;;;;;;;5888322;28;20101;-69
2023/10/25 10:12:07;;;;;;;4.97;3.60;;;;;;;;;;5885236;28;20056;-70
2023/10/25 10:14:58;;;;;;;3.95;3.55;;;;;;;;;;5889620;28;20056;-70
2023/10/25 10:17:49;;;;;;;14.55;4.07;;;;;;;;;;5887880;28;20059;-69
2023/10/25 10:20:40;;;;;;;4.95;4.30;;;;;;;;;;5889045;28;20045;-70
2023/10/25 10:23:39;;;;;;;6.20;3.72;;;;;;;;;;5889111;28;20060;-71
2023/10/25 10:26:48;;;;;;;5.28;3.72;;;;;;;;;;5888956;28;20068;-69
2023/10/25 10:29:40;;;;;;;5.32;3.47;;;;;;;;;;5888794;28;20511;-70
2023/10/25 10:32:33;;;;;;;3.85;3.50;;;;;;;;;;5888792;28;20075;-70
2023/10/25 10:35:25;;;;;;;13.05;4.40;;;;;;;;;;5888912;28;20045;-70
2023/10/25 10:38:16;;;;;;;6.15;4.80;;;;;;;;;;5887621;28;20049;-70
2023/10/25 10:41:08;;;;;;;10.00;5.32;;;;;;;;;;5888708;28;20486;-70
2023/10/25 10:43:59;;;;;;;7.07;4.93;;;;;;;;;;5889273;28;20053;-69
2023/10/25 10:46:53;;;;;;;8.48;4.53;;;;;;;;;;5888917;28;20049;-70
2023/10/25 10:49:46;;;;;;;4.40;3.45;;;;;;;;;;5887172;28;20049;-70
2023/10/25 10:52:42;;;;;;;10.07;4.03;;;;;;;;;;5886851;28;20052;-70
2023/10/25 10:55:33;;;;;;;5.63;3.90;;;;;;;;;;5888396;28;20414;-70
2023/10/25 10:58:26;;;;;;;7.40;4.38;;;;;;;;;;5888315;28;20053;-71
2023/10/25 11:01:17;;;;;;;10.75;4.38;;;;;;;;;;5888283;28;20178;-70
2023/10/25 11:04:08;;;;;;;7.75;5.72;;;;;;;;;;5888172;28;20083;-70
2023/10/25 11:06:59;;;;;;;8.13;3.60;;;;;;;;;;5888529;28;20048;-70
2023/10/25 11:09:50;;;;;;;6.30;3.92;;;;;;;;;;5888107;28;20044;-70
2023/10/25 11:12:42;;;;;;;4.88;3.30;;;;;;;;;;5888141;28;20494;-70
2023/10/25 11:15:33;;;;;;;6.00;3.70;;;;;;;;;;5887916;28;20059;-70
2023/10/25 11:18:23;;;;;;;12.43;4.65;;;;;;;;;;5887976;28;20052;-71
2023/10/25 11:21:14;;;;;;;4.22;3.83;;;;;;;;;;5888010;28;20161;-70
2023/10/25 11:24:06;;;;;;;6.45;4.07;;;;;;;;;;5887913;28;20049;-70
2023/10/25 11:26:58;;;;;;;3.28;2.78;;;;;;;;;;5888351;28;20061;-71
2023/10/25 11:29:50;;;;;;;3.03;2.55;;;;;;;;;;5887616;28;20044;-70
2023/10/25 11:32:43;;;;;;;5.22;3.65;;;;;;;;;;5887738;28;20045;-70
2023/10/25 11:35:36;;;;;;;4.20;2.28;;;;;;;;;;5887573;28;20052;-70
2023/10/25 11:38:28;;;;;;;3.05;2.75;;;;;;;;;;5887525;28;20542;-70
2023/10/25 11:41:19;;;;;;;8.40;3.25;;;;;;;;;;5887931;28;20053;-70
2023/10/25 11:44:10;;;;;;;2.72;2.17;;;;;;;;;;5887438;28;20052;-71
2023/10/25 11:47:01;;;;;;;2.58;2.13;;;;;;;;;;5887828;28;20049;-70
2023/10/25 11:49:57;;;;;;;2.25;2.05;;;;;;;;;;5887890;28;20056;-71
2023/10/25 11:52:48;;;;;;;1.98;1.77;;;;;;;;;;5887249;28;20056;-70
2023/10/25 11:55:38;;;;;;;8.35;2.35;;;;;;;;;;5887059;28;20566;-70
2023/10/25 11:58:30;;;;;;;2.10;1.73;;;;;;;;;;5887074;28;20057;-70
2023/10/25 12:01:21;;;;;;;2.47;1.85;;;;;;;;;;5887275;28;20175;-70
2023/10/25 12:04:13;;;;;;;2.25;1.65;;;;;;;;;;5886172;28;20124;-70
2023/10/25 12:07:04;;;;;;;4.35;1.42;;;;;;;;;;5887313;28;20049;-71
2023/10/25 12:09:55;;;;;;;0.93;0.90;;;;;;;;;;5887288;28;20049;-70
2023/10/25 12:12:46;;;;;;;3.58;1.60;;;;;;;;;;5886578;28;20049;-70
2023/10/25 12:15:37;;;;;;;1.92;1.70;;;;;;;;;;5891871;28;20492;-70
2023/10/25 12:18:28;;;;;;;1.50;1.33;;;;;;;;;;5909675;28;20049;-69
2023/10/25 12:21:19;;;;;;;4.38;1.98;;;;;;;;;;5911143;28;20057;-70
2023/10/25 12:24:12;;;;;;;1.05;0.95;;;;;;;;;;5910490;28;20129;-70
2023/10/25 12:27:04;;;;;;;5.28;0.98;;;;;;;;;;5910118;28;20048;-70
2023/10/25 12:29:55;;;;;;;1.80;1.40;;;;;;;;;;5910353;28;20059;-69
2023/10/25 12:32:46;;;;;;;1.27;1.17;;;;;;;;;;5911070;28;20102;-69
2023/10/25 12:35:37;;;;;;;3.03;1.80;;;;;;;;;;5910517;28;20048;-70
2023/10/25 12:38:28;;;;;;;2.40;1.60;;;;;;;;;;5910239;28;20048;-70
2023/10/25 12:41:19;;;;;;;1.42;1.13;;;;;;;;;;5910391;28;20045;-70
2023/10/25 12:44:09;;;;;;;2.10;1.20;;;;;;;;;;5909659;28;20080;-70
2023/10/25 12:47:03;;;;;;;6.97;2.95;;;;;;;;;;5910510;28;20057;-70
2023/10/25 12:49:54;;;;;;;2.17;1.65;;;;;;;;;;5910853;28;20053;-70
2023/10/25 12:52:45;;;;;;;2.22;1.75;;;;;;;;;;5909436;28;20122;-71
2023/10/25 12:55:36;;;;;;;2.90;2.20;;;;;;;;;;5909032;28;20047;-70
2023/10/25 12:58:27;;;;;;;2.45;1.27;;;;;;;;;;5910193;28;20379;-70
2023/10/25 13:01:19;;;;;;;1.17;1.05;;;;;;;;;;5908457;28;20059;-70
2023/10/25 13:04:10;;;;;;;4.90;1.92;;;;;;;;;;5910102;28;20053;-70
2023/10/25 13:07:01;;;;;;;3.50;1.80;;;;;;;;;;5910415;28;20051;-70
2023/10/25 13:09:51;;;;;;;5.60;4.50;;;;;;;;;;5910546;28;20052;-70
2023/10/25 13:12:44;;;;;;;7.97;3.75;;;;;;;;;;5910767;28;20418;-70
2023/10/25 13:15:35;;;;;;;3.65;2.25;;;;;;;;;;5913216;28;20443;-70
2023/10/25 13:18:26;;;;;;;3.45;2.72;;;;;;;;;;5914581;28;20049;-70
2023/10/25 13:21:17;;;;;;;10.13;1.95;;;;;;;;;;5914664;28;20064;-70
2023/10/25 13:24:09;;;;;;;3.40;2.42;;;;;;;;;;5914528;28;20048;-70
2023/10/25 13:27:02;;;;;;;1.73;1.10;;;;;;;;;;5914629;28;20059;-70
2023/10/25 13:29:55;;;;;;;1.98;1.15;;;;;;;;;;5914297;28;20051;-70
2023/10/25 13:32:46;;;;;;;2.20;1.35;;;;;;;;;;5914722;28;20417;-70
2023/10/25 13:35:37;;;;;;;2.95;1.75;;;;;;;;;;5914371;28;20395;-70
2023/10/25 13:38:28;;;;;;;4.70;2.22;;;;;;;;;;5913932;28;20123;-70
2023/10/25 13:41:19;;;;;;;1.95;1.33;;;;;;;;;;5914097;28;20040;-70
2023/10/25 13:44:10;;;;;;;6.03;1.95;;;;;;;;;;5912766;28;20051;-70
2023/10/25 13:47:01;;;;;;;2.22;1.73;;;;;;;;;;5911602;28;20056;-70
2023/10/25 13:49:52;;;;;;;1.50;1.30;;;;;;;;;;5913728;28;20056;-70
2023/10/25 13:52:43;;;;;;;3.17;1.70;;;;;;;;;;5913309;28;20063;-70
2023/10/25 13:55:38;;;;;;;2.42;1.73;;;;;;;;;;5913085;28;20048;-70
2023/10/25 13:58:30;;;;;;;3.42;1.85;;;;;;;;;;5913254;28;20060;-70
2023/10/25 14:01:20;;;;;;;2.10;1.25;;;;;;;;;;5912871;28;20052;-70
2023/10/25 14:04:11;;;;;;;5.32;2.35;;;;;;;;;;5913158;28;20048;-70
2023/10/25 14:07:06;;;;;;;4.03;1.65;;;;;;;;;;5913037;28;20477;-70
2023/10/25 14:09:57;;;;;;;2.20;1.52;;;;;;;;;;5913371;28;20055;-71
2023/10/25 14:12:48;;;;;;;0.70;0.70;;;;;;;;;;5912755;28;20395;-71
2023/10/25 14:15:39;;;;;;;1.63;1.00;;;;;;;;;;5912768;28;20052;-71
2023/10/25 14:18:30;;;;;;;1.30;0.93;;;;;;;;;;5911418;28;20056;-71
2023/10/25 14:21:23;;;;;;;2.92;1.27;;;;;;;;;;5912690;28;20099;-70
2023/10/25 14:24:14;;;;;;;1.58;1.05;;;;;;;;;;5912562;28;20054;-70
2023/10/25 14:27:05;;;;;;;4.20;1.23;;;;;;;;;;5911801;28;20462;-71
2023/10/25 14:29:56;;;;;;;1.08;0.80;;;;;;;;;;5912995;28;20044;-71
2023/10/25 14:32:47;;;;;;;1.17;1.02;;;;;;;;;;5912254;28;20055;-71
2023/10/25 14:35:38;;;;;;;1.95;1.27;;;;;;;;;;5912302;28;20048;-71
2023/10/25 14:38:29;;;;;;;13.45;1.40;;;;;;;;;;5912227;28;20147;-71
2023/10/25 14:41:20;;;;;;;2.70;1.42;;;;;;;;;;5912142;28;20045;-71
2023/10/25 14:44:11;;;;;;;6.78;2.08;;;;;;;;;;5910758;28;20059;-71
2023/10/25 14:47:03;;;;;;;2.00;1.60;;;;;;;;;;5911973;28;20067;-71
2023/10/25 14:49:55;;;;;;;1.83;1.33;;;;;;;;;;5912340;28;20052;-71
2023/10/25 14:52:46;;;;;;;1.90;1.13;;;;;;;;;;5911870;28;20056;-71
2023/10/25 14:55:37;;;;;;;2.00;1.60;;;;;;;;;;5911606;28;20074;-71
2023/10/25 14:58:28;;;;;;;2.97;1.75;;;;;;;;;;5911519;28;20044;-71
2023/10/25 15:01:20;;;;;;;2.90;2.17;;;;;;;;;;5911688;28;20047;-71
2023/10/25 15:04:11;;;;;;;3.78;1.77;;;;;;;;;;5911349;28;20063;-71
2023/10/25 15:07:03;;;;;;;3.45;2.28;;;;;;;;;;5911644;28;20417;-71
2023/10/25 15:09:53;;;;;;;1.77;1.42;;;;;;;;;;5911901;28;20061;-71
2023/10/25 15:12:44;;;;;;;1.67;1.30;;;;;;;;;;5911301;28;20049;-71
2023/10/25 15:15:35;;;;;;;2.25;1.48;;;;;;;;;;5911440;28;20048;-71
2023/10/25 15:18:26;;;;;;;1.83;1.20;;;;;;;;;;5911223;28;20518;-71
2023/10/25 15:21:20;;;;;;;2.05;1.73;;;;;;;;;;5911077;28;20048;-71
2023/10/25 15:24:11;;;;;;;2.42;2.08;;;;;;;;;;5911268;28;20059;-71
2023/10/25 15:27:02;;;;;;;6.60;3.50;;;;;;;;;;5911185;28;20414;-71
2023/10/25 15:29:53;;;;;;;4.45;2.63;;;;;;;;;;5911418;28;20433;-71
2023/10/25 15:32:44;;;;;;;6.22;3.65;;;;;;;;;;5910870;28;20117;-71
2023/10/25 15:35:35;;;;;;;9.45;6.35;;;;;;;;;;5910850;28;20101;-71
2023/10/25 15:38:25;;;;;;;11.30;6.18;;;;;;;;;;5909872;28;20790;-71
2023/10/25 15:41:25;;;;;;;5.47;4.38;;;;;;;;;;5910808;28;20063;-71
2023/10/25 15:44:15;;;;;;;4.60;3.65;;;;;;;;;;5910648;28;20059;-71
2023/10/25 15:47:06;;;;;;;6.70;4.15;;;;;;;;;;5910590;28;20059;-71
2023/10/25 15:49:57;;;;;;;3.88;2.58;;;;;;;;;;5910978;28;20048;-71
2023/10/25 15:52:48;;;;;;;3.60;2.50;;;;;;;;;;5910513;28;20055;-71
2023/10/25 15:55:49;;;;;;;6.78;3.80;;;;;;;;;;5910315;28;20583;-71
2023/10/25 15:58:41;;;;;;;13.93;8.00;;;;;;;;;;5910312;28;20044;-71
2023/10/25 16:01:32;;;;;;;17.77;7.45;;;;;;;;;;5910490;28;20045;-71
2023/10/25 16:04:41;;;;;;;7.00;5.78;;;;;;;;;;5910341;28;20497;-71
2023/10/25 16:07:32;;;;;;;6.28;4.05;;;;;;;;;;5910440;28;20406;-71
2023/10/25 16:10:23;;;;;;;5.07;3.88;;;;;;;;;;5910155;28;20410;-72
2023/10/25 16:13:14;;;;;;;5.18;3.78;;;;;;;;;;5910147;28;20413;-71
2023/10/25 16:16:09;;;;;;;5.05;3.33;;;;;;;;;;5910134;28;20048;-71
2023/10/25 16:19:00;;;;;;;24.25;4.28;;;;;;;;;;5910728;28;20063;-71
2023/10/25 16:21:50;;;;;;;3.72;3.05;;;;;;;;;;5910047;28;20182;-71
2023/10/25 16:24:41;;;;;;;3.10;2.60;;;;;;;;;;5909879;28;20051;-71
2023/10/25 16:27:32;;;;;;;24.30;4.97;;;;;;;;;;5909980;28;20048;-71
2023/10/25 16:30:23;;;;;;;5.78;3.95;;;;;;;;;;5909999;28;20398;-71
2023/10/25 16:33:15;;;;;;;7.40;4.65;;;;;;;;;;5909718;28;20052;-72
2023/10/25 16:36:08;;;;;;;12.93;6.75;;;;;;;;;;5909909;28;20048;-72
2023/10/25 16:38:59;;;;;;;8.23;5.40;;;;;;;;;;5910489;28;20052;-72
2023/10/25 16:41:50;;;;;;;10.15;6.93;;;;;;;;;;5908936;28;20520;-71
2023/10/25 16:44:41;;;;;;;10.75;7.32;;;;;;;;;;5909747;28;20483;-71
2023/10/25 16:47:31;;;;;;;13.88;6.80;;;;;;;;;;5909776;28;20055;-71
2023/10/25 16:50:25;;;;;;;10.55;6.63;;;;;;;;;;5913113;28;20068;-72
2023/10/25 16:53:16;;;;;;;15.57;7.72;;;;;;;;;;5913225;28;20052;-72
2023/10/25 16:56:06;;;;;;;18.85;11.07;;;;;;;;;;5914163;28;20052;-71
2023/10/25 16:58:57;;;;;;;16.25;9.23;;;;;;;;;;5914961;28;20055;-72
2023/10/25 17:01:48;;;;;;;26.67;12.40;;;;;;;;;;5914220;28;20051;-72
2023/10/25 17:04:39;;;;;;;21.92;11.77;;;;;;;;;;5914142;28;20045;-72
2023/10/25 17:07:30;;;;;;;21.45;11.23;;;;;;;;;;5914155;28;20044;-72